createdAt,value
2019-04-06T00:00:06.885Z,40.50
2019-04-06T00:01:06.871Z,43.30
2019-04-06T00:02:06.869Z,40.30
2019-04-06T00:03:06.856Z,39.30
2019-04-06T00:04:06.855Z,44.90
2019-04-06T00:05:06.845Z,45.50
2019-04-06T00:06:06.862Z,44.00
2019-04-06T00:07:06.829Z,39.00
2019-04-06T00:08:06.819Z,43.50
2019-04-06T00:09:06.808Z,40.10
2019-04-06T00:10:06.799Z,42.90
2019-04-06T00:11:06.790Z,43.60
2019-04-06T00:12:06.829Z,47.30
2019-04-06T00:13:06.774Z,43.60
2019-04-06T00:14:06.778Z,44.10
2019-04-06T00:15:06.761Z,42.60
2019-04-06T00:16:06.789Z,45.30
2019-04-06T00:17:06.742Z,41.40
2019-04-06T00:18:06.732Z,41.50
2019-04-06T00:19:06.724Z,43.20
2019-04-06T00:20:06.717Z,40.00
2019-04-06T00:21:06.709Z,44.40
2019-04-06T00:22:06.701Z,45.50
2019-04-06T00:23:06.692Z,39.90
2019-04-06T00:24:06.686Z,43.80
2019-04-06T00:25:06.687Z,38.50
2019-04-06T00:26:06.676Z,46.10
2019-04-06T00:27:06.662Z,39.40
2019-04-06T00:28:06.664Z,47.30
2019-04-06T00:29:06.645Z,44.00
2019-04-06T00:30:06.642Z,40.20
2019-04-06T00:31:06.632Z,41.90
2019-04-06T00:32:06.664Z,44.60
2019-04-06T00:33:06.612Z,43.60
2019-04-06T00:34:06.614Z,40.70
2019-04-06T00:35:06.604Z,39.80
2019-04-06T00:36:06.596Z,40.80
2019-04-06T00:37:06.578Z,43.70
2019-04-06T00:38:06.572Z,39.90
2019-04-06T00:39:06.564Z,41.80
2019-04-06T00:40:06.554Z,43.50
2019-04-06T00:41:06.546Z,43.00
2019-04-06T00:42:06.542Z,44.10
2019-04-06T00:43:06.547Z,39.50
2019-04-06T00:44:06.525Z,39.90
2019-04-06T00:45:06.517Z,42.50
2019-04-06T00:46:06.513Z,45.40
2019-04-06T00:47:06.501Z,47.20
2019-04-06T00:48:06.495Z,44.80
2019-04-06T00:49:06.484Z,42.50
2019-04-06T00:50:06.473Z,43.50
2019-04-06T00:51:06.468Z,41.60
2019-04-06T00:52:06.455Z,42.30
2019-04-06T00:53:06.448Z,40.70
2019-04-06T00:54:06.443Z,44.30
2019-04-06T00:55:06.438Z,41.30
2019-04-06T00:56:06.432Z,43.70
2019-04-06T00:57:06.418Z,39.20
2019-04-06T00:58:06.409Z,42.30
2019-04-06T00:59:06.400Z,43.10
2019-04-06T01:00:06.398Z,40.20
2019-04-06T01:01:06.387Z,41.40
2019-04-06T01:02:06.376Z,42.30
2019-04-06T01:03:06.372Z,44.60
2019-04-06T01:04:06.359Z,38.70
2019-04-06T01:05:06.351Z,39.90
2019-04-06T01:06:06.344Z,37.80
2019-04-06T01:07:06.343Z,43.50
2019-04-06T01:08:06.332Z,43.00
2019-04-06T01:09:06.324Z,39.70
2019-04-06T01:10:06.309Z,42.00
2019-04-06T01:11:06.344Z,43.30
2019-04-06T01:12:06.293Z,39.10
2019-04-06T01:13:06.286Z,42.10
2019-04-06T01:14:06.281Z,38.10
2019-04-06T01:15:06.276Z,41.70
2019-04-06T01:16:06.278Z,37.40
2019-04-06T01:17:06.255Z,35.70
2019-04-06T01:18:06.264Z,42.80
2019-04-06T01:19:06.240Z,43.60
2019-04-06T01:20:06.240Z,40.70
2019-04-06T01:21:06.222Z,35.30
2019-04-06T01:22:06.230Z,43.00
2019-04-06T01:23:06.210Z,39.20
2019-04-06T01:24:06.195Z,36.70
2019-04-06T01:25:06.188Z,38.60
2019-04-06T01:26:07.480Z,40.50
2019-04-06T01:27:06.179Z,39.40
2019-04-06T01:28:06.170Z,43.40
2019-04-06T01:29:06.161Z,40.20
2019-04-06T01:30:06.148Z,43.20
2019-04-06T01:31:06.139Z,40.40
2019-04-06T01:32:06.172Z,43.30
2019-04-06T01:33:06.126Z,49.40
2019-04-06T01:34:06.116Z,44.30
2019-04-06T01:35:06.113Z,42.30
2019-04-06T01:36:06.104Z,46.60
2019-04-06T01:37:06.092Z,46.00
2019-04-06T01:38:06.149Z,47.00
2019-04-06T01:39:06.160Z,47.90
2019-04-06T01:40:06.078Z,47.10
2019-04-06T01:41:06.070Z,50.40
2019-04-06T01:42:06.058Z,46.70
2019-04-06T01:43:06.054Z,51.50
2019-04-06T01:44:06.035Z,48.20
2019-04-06T01:45:06.029Z,47.70
2019-04-06T01:46:06.020Z,40.70
2019-04-06T01:47:06.017Z,46.90
2019-04-06T01:48:06.003Z,54.30
2019-04-06T01:49:05.999Z,46.80
2019-04-06T01:50:06.008Z,43.60
2019-04-06T01:51:05.985Z,43.70
2019-04-06T01:52:05.975Z,48.80
2019-04-06T01:53:05.965Z,49.60
2019-04-06T01:54:05.961Z,46.90
2019-04-06T01:55:05.946Z,46.30
2019-04-06T01:56:05.938Z,51.50
2019-04-06T01:57:05.934Z,46.00
2019-04-06T01:58:05.923Z,47.30
2019-04-06T01:59:05.920Z,49.70
2019-04-06T02:00:05.910Z,44.50
2019-04-06T02:01:05.929Z,40.70
2019-04-06T02:02:05.894Z,49.20
2019-04-06T02:03:05.882Z,42.00
2019-04-06T02:04:06.513Z,44.60
2019-04-06T02:05:05.867Z,44.80
2019-04-06T02:06:05.856Z,49.20
2019-04-06T02:07:05.852Z,45.90
2019-04-06T02:08:05.845Z,46.80
2019-04-06T02:09:05.932Z,48.80
2019-04-06T02:10:05.828Z,51.50
2019-04-06T02:11:05.817Z,43.10
2019-04-06T02:12:05.806Z,51.60
2019-04-06T02:13:05.796Z,51.90
2019-04-06T02:14:05.786Z,45.50
2019-04-06T02:15:05.782Z,46.60
2019-04-06T02:16:05.771Z,50.70
2019-04-06T02:17:05.760Z,53.30
2019-04-06T02:18:06.052Z,47.80
2019-04-06T02:19:05.748Z,50.10
2019-04-06T02:20:05.737Z,51.00
2019-04-06T02:21:05.742Z,56.70
2019-04-06T02:22:05.835Z,51.20
2019-04-06T02:23:05.713Z,52.50
2019-04-06T02:24:05.703Z,54.90
2019-04-06T02:25:05.700Z,51.50
2019-04-06T02:26:05.714Z,59.50
2019-04-06T02:27:05.680Z,62.30
2019-04-06T02:28:05.761Z,69.90
2019-04-06T02:29:05.661Z,79.50
2019-04-06T02:30:05.716Z,80.10
2019-04-06T02:31:05.658Z,76.20
2019-04-06T02:32:05.643Z,66.60
2019-04-06T02:33:05.626Z,72.90
2019-04-06T02:34:05.637Z,67.70
2019-04-06T02:35:05.605Z,65.10
2019-04-06T02:36:05.603Z,57.20
2019-04-06T02:37:05.632Z,57.30
2019-04-06T02:38:05.664Z,60.70
2019-04-06T02:39:05.580Z,54.80
2019-04-06T02:40:07.716Z,59.50
2019-04-06T02:41:05.639Z,51.40
2019-04-06T02:42:05.548Z,52.40
2019-04-06T02:43:05.540Z,52.60
2019-04-06T02:44:05.531Z,48.10
2019-04-06T02:45:05.522Z,52.50
2019-04-06T02:46:05.523Z,53.50
2019-04-06T02:47:05.500Z,50.90
2019-04-06T02:48:05.493Z,51.30
2019-04-06T02:49:05.488Z,51.70
2019-04-06T02:50:05.482Z,58.40
2019-04-06T02:51:05.470Z,68.60
2019-04-06T02:52:05.460Z,67.40
2019-04-06T02:53:05.460Z,57.70
2019-04-06T02:54:05.495Z,56.80
2019-04-06T02:55:05.468Z,64.40
2019-04-06T02:56:05.442Z,61.90
2019-04-06T02:57:05.636Z,56.40
2019-04-06T02:58:05.405Z,61.70
2019-04-06T02:59:05.602Z,64.20
2019-04-06T03:00:05.385Z,53.80
2019-04-06T03:01:05.380Z,53.70
2019-04-06T03:02:05.373Z,55.90
2019-04-06T03:03:05.364Z,51.00
2019-04-06T03:04:05.366Z,58.70
2019-04-06T03:05:05.346Z,55.30
2019-04-06T03:06:05.333Z,55.30
2019-04-06T03:07:05.329Z,54.30
2019-04-06T03:08:05.318Z,57.50
2019-04-06T03:09:05.309Z,52.30
2019-04-06T03:10:05.308Z,53.60
2019-04-06T03:11:05.323Z,52.30
2019-04-06T03:12:05.281Z,53.30
2019-04-06T03:13:05.307Z,60.30
2019-04-06T03:14:05.361Z,50.20
2019-04-06T03:15:05.257Z,48.80
2019-04-06T03:16:05.247Z,57.30
2019-04-06T03:17:05.249Z,45.00
2019-04-06T03:18:05.229Z,58.10
2019-04-06T03:19:05.319Z,51.40
2019-04-06T03:20:05.206Z,50.70
2019-04-06T03:21:05.205Z,48.30
2019-04-06T03:22:05.355Z,47.00
2019-04-06T03:23:05.196Z,50.00
2019-04-06T03:24:05.183Z,43.00
2019-04-06T03:25:05.169Z,46.90
2019-04-06T03:26:05.156Z,51.60
2019-04-06T03:27:05.149Z,48.20
2019-04-06T03:28:05.155Z,45.10
2019-04-06T03:29:05.131Z,44.70
2019-04-06T03:30:05.146Z,50.90
2019-04-06T03:31:05.117Z,50.30
2019-04-06T03:32:05.110Z,48.20
2019-04-06T03:33:05.098Z,43.90
2019-04-06T03:34:05.095Z,52.80
2019-04-06T03:35:05.107Z,44.40
2019-04-06T03:36:05.536Z,45.50
2019-04-06T03:37:05.078Z,47.00
2019-04-06T03:38:05.081Z,47.40
2019-04-06T03:39:05.042Z,49.20
2019-04-06T03:40:05.036Z,46.40
2019-04-06T03:41:05.023Z,46.00
2019-04-06T03:42:05.013Z,44.50
2019-04-06T03:43:05.013Z,45.90
2019-04-06T03:44:05.298Z,43.00
2019-04-06T03:45:04.983Z,42.70
2019-04-06T03:46:04.980Z,46.60
2019-04-06T03:47:04.974Z,49.10
2019-04-06T03:48:04.968Z,49.70
2019-04-06T03:49:04.947Z,47.30
2019-04-06T03:50:04.936Z,51.70
2019-04-06T03:51:04.930Z,51.50
2019-04-06T03:52:05.090Z,50.40
2019-04-06T03:53:04.908Z,50.60
2019-04-06T03:54:04.906Z,51.20
2019-04-06T03:55:04.903Z,47.50
2019-04-06T03:56:04.881Z,49.50
2019-04-06T03:57:14.466Z,54.40
2019-04-06T03:58:04.866Z,56.30
2019-04-06T03:59:04.861Z,62.10
2019-04-06T04:00:04.849Z,61.40
2019-04-06T04:01:04.837Z,67.30
2019-04-06T04:02:04.827Z,64.90
2019-04-06T04:03:04.816Z,73.70
2019-04-06T04:04:04.809Z,72.70
2019-04-06T04:05:04.803Z,71.90
2019-04-06T04:06:04.875Z,65.70
2019-04-06T04:07:04.786Z,66.90
2019-04-06T04:08:04.775Z,78.50
2019-04-06T04:09:04.762Z,78.80
2019-04-06T04:10:04.972Z,75.70
2019-04-06T04:11:04.746Z,70.40
2019-04-06T04:12:04.736Z,72.60
2019-04-06T04:13:04.746Z,69.50
2019-04-06T04:14:04.720Z,69.00
2019-04-06T04:15:04.977Z,79.50
2019-04-06T04:16:04.699Z,80.70
2019-04-06T04:17:04.689Z,74.10
2019-04-06T04:18:04.778Z,81.00
2019-04-06T04:19:04.675Z,83.40
2019-04-06T04:20:04.664Z,70.10
2019-04-06T04:21:04.656Z,76.70
2019-04-06T04:22:04.643Z,68.40
2019-04-06T04:23:04.629Z,79.70
2019-04-06T04:24:04.628Z,81.40
2019-04-06T04:25:04.778Z,84.30
2019-04-06T04:26:04.607Z,76.60
2019-04-06T04:27:04.600Z,83.20
2019-04-06T04:28:04.588Z,73.00
2019-04-06T04:29:04.589Z,75.30
2019-04-06T04:30:04.580Z,68.80
2019-04-06T04:31:04.560Z,98.40
2019-04-06T04:32:04.550Z,77.00
2019-04-06T04:33:04.537Z,83.10
2019-04-06T04:34:04.533Z,81.40
2019-04-06T04:35:04.519Z,76.70
2019-04-06T04:36:04.682Z,86.10
2019-04-06T04:37:04.500Z,79.10
2019-04-06T04:38:04.494Z,88.20
2019-04-06T04:39:04.784Z,86.20
2019-04-06T04:40:04.483Z,81.70
2019-04-06T04:41:04.465Z,88.20
2019-04-06T04:42:04.529Z,84.40
2019-04-06T04:43:05.090Z,96.10
2019-04-06T04:44:04.436Z,76.60
2019-04-06T04:45:04.429Z,86.80
2019-04-06T04:46:04.413Z,79.50
2019-04-06T04:47:04.414Z,86.00
2019-04-06T04:48:04.397Z,89.30
2019-04-06T04:49:04.391Z,81.80
2019-04-06T04:50:04.378Z,86.40
2019-04-06T04:51:04.527Z,84.80
2019-04-06T04:52:04.360Z,80.30
2019-04-06T04:53:04.350Z,82.00
2019-04-06T04:54:04.340Z,78.80
2019-04-06T04:55:04.331Z,89.40
2019-04-06T04:56:04.320Z,77.20
2019-04-06T04:57:04.309Z,83.80
2019-04-06T04:58:04.309Z,77.40
2019-04-06T04:59:04.293Z,78.40
2019-04-06T05:00:04.279Z,75.80
2019-04-06T05:01:04.266Z,69.60
2019-04-06T05:02:04.266Z,60.30
2019-04-06T05:03:04.556Z,65.40
2019-04-06T05:04:04.250Z,68.70
2019-04-06T05:05:04.241Z,73.40
2019-04-06T05:06:04.222Z,63.40
2019-04-06T05:07:04.312Z,67.10
2019-04-06T05:08:04.205Z,65.40
2019-04-06T05:09:04.193Z,68.10
2019-04-06T05:10:04.194Z,64.50
2019-04-06T05:11:04.227Z,64.00
2019-04-06T05:12:04.172Z,57.60
2019-04-06T05:13:04.165Z,63.20
2019-04-06T05:14:04.155Z,61.90
2019-04-06T05:15:04.139Z,61.20
2019-04-06T05:16:04.140Z,65.90
2019-04-06T05:17:04.128Z,69.20
2019-04-06T05:18:04.114Z,63.70
2019-04-06T05:19:04.119Z,62.90
2019-04-06T05:20:04.098Z,66.90
2019-04-06T05:21:04.093Z,61.50
2019-04-06T05:22:04.081Z,54.40
2019-04-06T05:23:04.096Z,62.40
2019-04-06T05:24:04.180Z,55.90
2019-04-06T05:25:04.057Z,57.80
2019-04-06T05:26:04.240Z,61.50
2019-04-06T05:27:04.033Z,57.80
2019-04-06T05:28:04.032Z,54.80
2019-04-06T05:29:04.014Z,53.40
2019-04-06T05:30:04.586Z,58.70
2019-04-06T05:31:04.000Z,53.90
2019-04-06T05:32:03.994Z,61.50
2019-04-06T05:33:03.977Z,53.90
2019-04-06T05:34:04.059Z,57.70
2019-04-06T05:35:03.955Z,55.30
2019-04-06T05:36:04.073Z,56.00
2019-04-06T05:37:03.951Z,57.20
2019-04-06T05:38:03.932Z,55.10
2019-04-06T05:39:04.068Z,53.90
2019-04-06T05:40:03.919Z,54.10
2019-04-06T05:41:04.087Z,60.30
2019-04-06T05:42:03.903Z,54.90
2019-04-06T05:43:03.894Z,51.30
2019-04-06T05:44:03.927Z,52.00
2019-04-06T05:45:03.873Z,54.40
2019-04-06T05:46:03.860Z,49.70
2019-04-06T05:47:03.859Z,51.40
2019-04-06T05:48:03.851Z,53.40
2019-04-06T05:49:03.843Z,45.40
2019-04-06T05:50:03.833Z,50.00
2019-04-06T05:51:03.848Z,53.50
2019-04-06T05:52:03.843Z,55.30
2019-04-06T05:53:03.805Z,45.70
2019-04-06T05:54:03.802Z,45.60
2019-04-06T05:55:03.851Z,45.00
2019-04-06T05:56:03.782Z,48.40
2019-04-06T05:57:03.885Z,51.10
2019-04-06T05:58:04.707Z,48.20
2019-04-06T05:59:03.756Z,44.70
2019-04-06T06:00:03.746Z,45.60
2019-04-06T06:01:04.333Z,50.50
2019-04-06T06:02:03.771Z,48.00
2019-04-06T06:03:03.724Z,52.30
2019-04-06T06:04:03.717Z,49.90
2019-04-06T06:05:03.706Z,47.20
2019-04-06T06:06:03.867Z,49.60
2019-04-06T06:07:03.692Z,53.80
2019-04-06T06:08:03.688Z,47.20
2019-04-06T06:09:03.677Z,45.20
2019-04-06T06:10:03.820Z,44.10
2019-04-06T06:11:03.670Z,44.00
2019-04-06T06:12:03.649Z,48.50
2019-04-06T06:13:03.639Z,48.90
2019-04-06T06:14:03.636Z,48.80
2019-04-06T06:15:03.631Z,42.30
2019-04-06T06:16:03.766Z,46.60
2019-04-06T06:17:03.612Z,45.40
2019-04-06T06:18:03.594Z,45.10
2019-04-06T06:19:03.592Z,44.80
2019-04-06T06:20:03.643Z,46.30
2019-04-06T06:21:03.579Z,50.40
2019-04-06T06:22:03.569Z,47.40
2019-04-06T06:23:03.603Z,43.40
2019-04-06T06:24:03.552Z,45.90
2019-04-06T06:25:03.816Z,45.70
2019-04-06T06:26:03.572Z,43.90
2019-04-06T06:27:03.530Z,49.70
2019-04-06T06:28:13.843Z,45.70
2019-04-06T06:29:03.528Z,46.60
2019-04-06T06:30:03.505Z,46.00
2019-04-06T06:31:03.502Z,46.40
2019-04-06T06:32:03.495Z,43.70
2019-04-06T06:33:03.520Z,45.00
2019-04-06T06:34:03.479Z,46.40
2019-04-06T06:35:03.471Z,43.90
2019-04-06T06:36:03.462Z,41.20
2019-04-06T06:37:03.453Z,43.90
2019-04-06T06:38:03.489Z,41.40
2019-04-06T06:39:03.447Z,45.90
2019-04-06T06:40:03.444Z,42.90
2019-04-06T06:41:03.425Z,47.70
2019-04-06T06:42:03.418Z,46.50
2019-04-06T06:43:03.450Z,46.00
2019-04-06T06:44:03.403Z,45.30
2019-04-06T06:45:03.396Z,46.20
2019-04-06T06:46:03.487Z,43.20
2019-04-06T06:47:03.387Z,44.40
2019-04-06T06:48:03.388Z,47.00
2019-04-06T06:49:03.373Z,44.40
2019-04-06T06:50:03.361Z,49.20
2019-04-06T06:51:03.355Z,51.80
2019-04-06T06:52:03.363Z,45.20
2019-04-06T06:53:03.606Z,42.90
2019-04-06T06:54:03.401Z,42.70
2019-04-06T06:55:03.333Z,48.90
2019-04-06T06:56:03.387Z,41.80
2019-04-06T06:57:03.315Z,40.60
2019-04-06T06:58:03.309Z,46.50
2019-04-06T06:59:03.305Z,54.50
2019-04-06T07:00:03.308Z,47.50
2019-04-06T07:01:03.624Z,46.30
2019-04-06T07:02:03.275Z,44.10
2019-04-06T07:03:03.277Z,47.10
2019-04-06T07:04:03.348Z,43.90
2019-04-06T07:05:03.265Z,41.30
2019-04-06T07:06:03.330Z,41.50
2019-04-06T07:07:03.251Z,46.50
2019-04-06T07:08:03.253Z,43.20
2019-04-06T07:09:03.241Z,44.00
2019-04-06T07:10:05.671Z,43.20
2019-04-06T07:11:03.230Z,42.70
2019-04-06T07:12:03.224Z,47.30
2019-04-06T07:13:03.220Z,39.30
2019-04-06T07:14:03.229Z,38.70
2019-04-06T07:15:03.244Z,43.10
2019-04-06T07:16:03.206Z,47.60
2019-04-06T07:17:03.210Z,46.30
2019-04-06T07:18:03.187Z,45.60
2019-04-06T07:19:03.183Z,45.30
2019-04-06T07:20:03.174Z,39.90
2019-04-06T07:21:03.181Z,42.20
2019-04-06T07:22:03.328Z,40.80
2019-04-06T07:23:03.171Z,44.10
2019-04-06T07:24:03.153Z,44.90
2019-04-06T07:25:03.147Z,44.00
2019-04-06T07:26:03.142Z,45.10
2019-04-06T07:27:04.127Z,42.80
2019-04-06T07:28:03.136Z,50.30
2019-04-06T07:29:03.300Z,48.70
2019-04-06T07:30:03.150Z,52.30
2019-04-06T07:31:03.115Z,51.80
2019-04-06T07:32:03.107Z,46.90
2019-04-06T07:33:03.101Z,43.10
2019-04-06T07:34:03.101Z,40.90
2019-04-06T07:35:03.108Z,44.00
2019-04-06T07:36:03.100Z,42.30
2019-04-06T07:37:03.076Z,37.90
2019-04-06T07:38:03.072Z,38.80
2019-04-06T07:39:03.688Z,47.20
2019-04-06T07:40:03.067Z,47.00
2019-04-06T07:41:03.061Z,43.70
2019-04-06T07:42:03.095Z,41.90
2019-04-06T07:43:03.149Z,40.60
2019-04-06T07:44:05.529Z,38.60
2019-04-06T07:45:03.348Z,41.50
2019-04-06T07:46:03.029Z,48.70
2019-04-06T07:47:03.024Z,41.10
2019-04-06T07:48:03.273Z,44.40
2019-04-06T07:49:08.327Z,39.00
2019-04-06T07:50:03.645Z,38.80
2019-04-06T07:51:03.009Z,41.50
2019-04-06T07:52:03.002Z,42.20
2019-04-06T07:53:02.998Z,42.60
2019-04-06T07:54:02.990Z,44.00
2019-04-06T07:55:02.997Z,43.90
2019-04-06T07:56:02.989Z,40.10
2019-04-06T07:57:02.982Z,40.70
2019-04-06T07:58:02.974Z,43.30
2019-04-06T07:59:02.971Z,43.30
2019-04-06T08:00:02.970Z,41.50
2019-04-06T08:01:02.960Z,40.10
2019-04-06T08:02:02.956Z,45.20
2019-04-06T08:03:02.958Z,38.80
2019-04-06T08:04:02.949Z,38.60
2019-04-06T08:05:02.948Z,39.70
2019-04-06T08:06:02.949Z,43.30
2019-04-06T08:07:02.942Z,40.20
2019-04-06T08:08:02.936Z,43.30
2019-04-06T08:09:02.929Z,39.70
2019-04-06T08:10:02.932Z,35.40
2019-04-06T08:11:02.924Z,41.40
2019-04-06T08:12:02.918Z,40.30
2019-04-06T08:13:03.652Z,42.10
2019-04-06T08:14:03.876Z,40.50
2019-04-06T08:15:02.913Z,40.10
2019-04-06T08:16:03.313Z,40.40
2019-04-06T08:17:02.974Z,37.30
2019-04-06T08:18:02.909Z,39.10
2019-04-06T08:19:03.247Z,36.60
2019-04-06T08:20:02.907Z,44.80
2019-04-06T08:21:02.886Z,41.10
2019-04-06T08:22:02.894Z,40.60
2019-04-06T08:23:02.882Z,39.60
2019-04-06T08:24:03.150Z,40.70
2019-04-06T08:25:02.882Z,42.90
2019-04-06T08:26:03.022Z,40.60
2019-04-06T08:27:02.868Z,43.20
2019-04-06T08:28:02.868Z,39.10
2019-04-06T08:29:02.899Z,41.70
2019-04-06T08:30:02.856Z,41.80
2019-04-06T08:31:02.865Z,36.00
2019-04-06T08:32:02.852Z,38.30
2019-04-06T08:33:03.081Z,38.30
2019-04-06T08:34:02.848Z,41.50
2019-04-06T08:35:02.847Z,37.20
2019-04-06T08:36:02.842Z,36.00
2019-04-06T08:37:02.845Z,43.70
2019-04-06T08:38:02.844Z,38.30
2019-04-06T08:39:02.829Z,41.80
2019-04-06T08:40:02.827Z,39.70
2019-04-06T08:41:02.869Z,41.60
2019-04-06T08:42:03.042Z,34.80
2019-04-06T08:43:02.820Z,37.20
2019-04-06T08:44:06.894Z,38.90
2019-04-06T08:45:02.810Z,36.30
2019-04-06T08:46:02.834Z,36.20
2019-04-06T08:47:02.807Z,35.00
2019-04-06T08:48:04.672Z,32.30
2019-04-06T08:49:04.670Z,32.10
2019-04-06T08:50:02.794Z,33.40
2019-04-06T08:51:04.810Z,33.50
2019-04-06T08:52:02.799Z,33.20
2019-04-06T08:53:02.787Z,35.40
2019-04-06T08:54:02.780Z,35.00
2019-04-06T08:55:02.785Z,37.10
2019-04-06T08:56:02.769Z,35.30
2019-04-06T08:57:04.676Z,36.20
2019-04-06T08:58:02.769Z,34.80
2019-04-06T08:59:11.286Z,34.20
2019-04-06T09:00:02.763Z,35.80
2019-04-06T09:01:02.758Z,37.20
2019-04-06T09:02:02.760Z,34.40
2019-04-06T09:03:02.753Z,37.30
2019-04-06T09:04:02.754Z,38.90
2019-04-06T09:05:02.786Z,39.00
2019-04-06T09:06:02.746Z,37.30
2019-04-06T09:07:02.743Z,37.10
2019-04-06T09:08:04.678Z,37.40
2019-04-06T09:09:02.751Z,40.20
2019-04-06T09:10:02.760Z,37.50
2019-04-06T09:11:02.735Z,35.90
2019-04-06T09:12:02.981Z,36.70
2019-04-06T09:13:02.724Z,36.80
2019-04-06T09:14:02.719Z,36.90
2019-04-06T09:15:02.717Z,37.40
2019-04-06T09:16:03.993Z,38.80
2019-04-06T09:17:02.714Z,38.00
2019-04-06T09:18:02.708Z,38.20
2019-04-06T09:19:02.716Z,38.10
2019-04-06T09:20:02.702Z,38.80
2019-04-06T09:21:03.187Z,35.70
2019-04-06T09:22:04.959Z,36.10
2019-04-06T09:23:03.689Z,37.50
2019-04-06T09:24:02.720Z,35.90
2019-04-06T09:25:02.697Z,35.90
2019-04-06T09:26:02.793Z,37.50
2019-04-06T09:27:02.957Z,33.90
2019-04-06T09:28:02.682Z,34.30
2019-04-06T09:29:02.726Z,35.00
2019-04-06T09:30:02.722Z,33.50
2019-04-06T09:31:02.679Z,34.60
2019-04-06T09:32:02.668Z,35.80
2019-04-06T09:33:02.664Z,36.00
2019-04-06T09:34:02.670Z,36.60
2019-04-06T09:35:02.706Z,32.90
2019-04-06T09:36:03.664Z,32.60
2019-04-06T09:37:04.193Z,33.80
2019-04-06T09:38:04.197Z,35.10
2019-04-06T09:39:02.773Z,36.10
2019-04-06T09:40:02.650Z,34.80
2019-04-06T09:41:04.248Z,32.60
2019-04-06T09:42:06.198Z,34.30
2019-04-06T09:43:04.393Z,35.50
2019-04-06T09:44:02.661Z,36.90
2019-04-06T09:45:02.633Z,35.80
2019-04-06T09:46:04.205Z,32.40
2019-04-06T09:47:02.629Z,34.70
2019-04-06T09:48:02.630Z,34.80
2019-04-06T09:49:02.622Z,28.60
2019-04-06T09:50:02.618Z,33.60
2019-04-06T09:51:04.208Z,36.30
2019-04-06T09:52:04.202Z,36.00
2019-04-06T09:53:04.400Z,34.10
2019-04-06T09:54:06.648Z,37.20
2019-04-06T09:55:02.610Z,33.60
2019-04-06T09:56:02.764Z,36.70
2019-04-06T09:57:02.603Z,34.60
2019-04-06T09:58:02.598Z,32.00
2019-04-06T09:59:02.592Z,35.30
2019-04-06T10:00:02.604Z,33.50
2019-04-06T10:01:02.590Z,34.20
2019-04-06T10:02:02.588Z,34.20
2019-04-06T10:03:02.586Z,31.10
2019-04-06T10:04:02.588Z,35.00
2019-04-06T10:05:02.579Z,30.70
2019-04-06T10:06:04.214Z,31.60
2019-04-06T10:07:02.575Z,30.10
2019-04-06T10:08:02.576Z,31.60
2019-04-06T10:09:03.566Z,31.30
2019-04-06T10:10:04.204Z,30.50
2019-04-06T10:11:02.583Z,31.70
2019-04-06T10:12:04.235Z,32.70
2019-04-06T10:13:02.558Z,31.70
2019-04-06T10:14:02.560Z,33.40
2019-04-06T10:15:02.552Z,31.70
2019-04-06T10:16:02.562Z,33.30
2019-04-06T10:17:02.629Z,31.10
2019-04-06T10:18:02.843Z,34.70
2019-04-06T10:19:02.543Z,31.80
2019-04-06T10:20:02.544Z,33.30
2019-04-06T10:21:02.540Z,31.00
2019-04-06T10:22:02.535Z,31.00
2019-04-06T10:23:04.487Z,32.40
2019-04-06T10:24:02.534Z,34.80
2019-04-06T10:25:02.538Z,30.10
2019-04-06T10:26:04.229Z,32.10
2019-04-06T10:27:04.227Z,30.90
2019-04-06T10:28:02.662Z,33.90
2019-04-06T10:29:02.520Z,32.80
2019-04-06T10:30:02.516Z,30.60
2019-04-06T10:31:02.524Z,32.10
2019-04-06T10:32:02.512Z,32.00
2019-04-06T10:33:02.505Z,30.40
2019-04-06T10:34:04.326Z,32.00
2019-04-06T10:35:02.511Z,31.40
2019-04-06T10:36:02.498Z,30.10
2019-04-06T10:37:02.493Z,31.50
2019-04-06T10:38:02.492Z,31.40
2019-04-06T10:39:02.494Z,33.50
2019-04-06T10:40:04.233Z,29.60
2019-04-06T10:41:04.232Z,28.90
2019-04-06T10:42:04.224Z,31.60
2019-04-06T10:43:04.235Z,32.10
2019-04-06T10:44:02.532Z,33.80
2019-04-06T10:45:02.627Z,31.00
2019-04-06T10:46:02.467Z,32.30
2019-04-06T10:47:02.462Z,35.00
2019-04-06T10:48:02.466Z,31.30
2019-04-06T10:49:02.457Z,35.20
2019-04-06T10:50:04.225Z,30.60
2019-04-06T10:51:04.237Z,31.20
2019-04-06T10:52:02.448Z,29.30
2019-04-06T10:53:02.444Z,31.30
2019-04-06T10:54:04.232Z,34.30
2019-04-06T10:55:02.776Z,26.50
2019-04-06T10:56:02.609Z,30.80
2019-04-06T10:57:04.241Z,29.70
2019-04-06T10:58:02.536Z,28.10
2019-04-06T10:59:03.414Z,31.60
2019-04-06T11:00:03.375Z,28.70
2019-04-06T11:01:04.246Z,30.70
2019-04-06T11:02:02.522Z,37.20
2019-04-06T11:03:04.244Z,29.30
2019-04-06T11:04:04.388Z,28.20
2019-04-06T11:05:02.400Z,29.60
2019-04-06T11:06:02.400Z,31.30
2019-04-06T11:07:02.399Z,33.20
2019-04-06T11:08:02.388Z,28.90
2019-04-06T11:09:02.388Z,30.90
2019-04-06T11:10:04.339Z,28.40
2019-04-06T11:11:04.503Z,30.30
2019-04-06T11:12:02.384Z,29.40
2019-04-06T11:13:02.376Z,31.00
2019-04-06T11:14:02.377Z,31.00
2019-04-06T11:15:02.429Z,30.80
2019-04-06T11:16:02.666Z,27.50
2019-04-06T11:17:02.363Z,30.90
2019-04-06T11:18:02.378Z,29.10
2019-04-06T11:19:06.254Z,30.60
2019-04-06T11:20:02.353Z,31.00
2019-04-06T11:21:02.346Z,33.00
2019-04-06T11:22:02.512Z,28.80
2019-04-06T11:23:02.341Z,28.40
2019-04-06T11:24:02.608Z,28.00
2019-04-06T11:25:02.337Z,27.80
2019-04-06T11:26:02.330Z,28.50
2019-04-06T11:27:02.385Z,27.20
2019-04-06T11:28:03.978Z,25.90
2019-04-06T11:29:04.255Z,29.70
2019-04-06T11:30:12.434Z,29.00
2019-04-06T11:31:03.322Z,28.60
2019-04-06T11:32:02.540Z,28.60
2019-04-06T11:33:06.264Z,31.20
2019-04-06T11:34:02.301Z,30.00
2019-04-06T11:35:04.260Z,27.90
2019-04-06T11:36:04.398Z,27.70
2019-04-06T11:37:02.289Z,30.10
2019-04-06T11:38:02.299Z,24.00
2019-04-06T11:39:02.484Z,26.90
2019-04-06T11:40:02.286Z,30.40
2019-04-06T11:41:02.352Z,32.40
2019-04-06T11:42:02.352Z,30.90
2019-04-06T11:43:03.266Z,29.50
2019-04-06T11:44:02.270Z,29.30
2019-04-06T11:45:02.267Z,29.40
2019-04-06T11:46:02.573Z,26.40
2019-04-06T11:47:02.464Z,32.40
2019-04-06T11:48:02.260Z,29.60
2019-04-06T11:49:02.252Z,33.10
2019-04-06T11:50:02.255Z,32.30
2019-04-06T11:51:02.255Z,37.90
2019-04-06T11:52:02.252Z,33.50
2019-04-06T11:53:02.254Z,30.10
2019-04-06T11:54:02.311Z,32.60
2019-04-06T11:55:02.558Z,26.70
2019-04-06T11:56:02.238Z,24.70
2019-04-06T11:57:02.234Z,32.80
2019-04-06T11:58:02.228Z,31.20
2019-04-06T11:59:02.572Z,27.00
2019-04-06T12:00:02.450Z,30.10
2019-04-06T12:01:02.529Z,30.20
2019-04-06T12:02:02.211Z,31.90
2019-04-06T12:03:02.211Z,32.30
2019-04-06T12:04:02.298Z,31.00
2019-04-06T12:05:02.236Z,29.20
2019-04-06T12:06:02.353Z,28.60
2019-04-06T12:07:02.198Z,29.40
2019-04-06T12:08:02.195Z,28.10
2019-04-06T12:09:02.221Z,29.90
2019-04-06T12:10:02.548Z,28.80
2019-04-06T12:11:02.187Z,31.70
2019-04-06T12:12:03.980Z,34.70
2019-04-06T12:13:02.301Z,31.90
2019-04-06T12:14:02.180Z,29.10
2019-04-06T12:15:02.233Z,31.50
2019-04-06T12:16:02.235Z,29.20
2019-04-06T12:17:02.301Z,28.70
2019-04-06T12:18:02.355Z,26.30
2019-04-06T12:19:03.785Z,25.30
2019-04-06T12:20:04.179Z,31.80
2019-04-06T12:21:03.840Z,27.60
2019-04-06T12:22:02.167Z,29.00
2019-04-06T12:23:02.153Z,26.80
2019-04-06T12:24:03.790Z,28.60
2019-04-06T12:25:03.793Z,29.70
2019-04-06T12:26:02.147Z,26.10
2019-04-06T12:27:02.142Z,27.00
2019-04-06T12:28:02.152Z,27.80
2019-04-06T12:29:03.792Z,26.20
2019-04-06T12:30:02.169Z,25.50
2019-04-06T12:31:02.134Z,26.90
2019-04-06T12:32:02.138Z,25.00
2019-04-06T12:33:02.133Z,23.70
2019-04-06T12:34:02.483Z,26.30
2019-04-06T12:35:02.139Z,31.50
2019-04-06T12:36:02.135Z,34.70
2019-04-06T12:37:02.127Z,48.20
2019-04-06T12:38:02.122Z,44.50
2019-04-06T12:39:02.134Z,37.30
2019-04-06T12:40:02.442Z,30.90
2019-04-06T12:41:02.114Z,27.70
2019-04-06T12:42:02.129Z,26.30
2019-04-06T12:43:02.116Z,25.50
2019-04-06T12:44:02.110Z,23.90
2019-04-06T12:45:02.115Z,25.60
2019-04-06T12:46:02.563Z,30.10
2019-04-06T12:47:04.048Z,29.00
2019-04-06T12:48:02.108Z,28.50
2019-04-06T12:49:02.221Z,29.70
2019-04-06T12:50:03.864Z,29.30
2019-04-06T12:51:02.094Z,26.50
2019-04-06T12:52:02.095Z,30.30